createdAt,value
2023-04-16T00:00:06.341Z,465.0000
2023-04-16T00:01:07.351Z,465.3077
2023-04-16T00:02:08.507Z,462.3846
2023-04-16T00:03:09.569Z,461.5385
2023-04-16T00:04:10.597Z,462.3846
2023-04-16T00:05:11.525Z,460.6923
2023-04-16T00:06:12.511Z,461.1538
2023-04-16T00:07:13.566Z,461.3077
2023-04-16T00:08:14.645Z,459.6923
2023-04-16T00:09:15.645Z,459.8462
2023-04-16T00:10:16.729Z,460.6923
2023-04-16T00:11:17.779Z,463.1538
2023-04-16T00:12:18.764Z,467.5385
2023-04-16T00:13:19.801Z,467.1538
2023-04-16T00:14:20.847Z,467.6923
2023-04-16T00:15:22.010Z,465.6923
2023-04-16T00:16:23.032Z,465.3077
2023-04-16T00:17:24.046Z,465.7692
2023-04-16T00:18:25.050Z,465.0000
2023-04-16T00:19:26.100Z,466.4615
2023-04-16T00:20:27.143Z,465.6154
2023-04-16T00:21:28.191Z,466.0769
2023-04-16T00:22:29.210Z,466.6154
2023-04-16T00:23:30.222Z,463.9231
2023-04-16T00:24:31.268Z,463.6923
2023-04-16T00:25:32.352Z,464.2308
2023-04-16T00:26:33.346Z,461.7692
2023-04-16T00:27:34.400Z,462.3846
2023-04-16T00:28:35.402Z,462.0769
2023-04-16T00:29:36.404Z,462.4615
2023-04-16T00:30:37.471Z,465.5385
2023-04-16T00:31:38.451Z,465.3077
2023-04-16T00:32:39.540Z,463.6923
2023-04-16T00:33:40.512Z,462.6923
2023-04-16T00:34:41.665Z,463.3077
2023-04-16T00:35:42.645Z,462.6923
2023-04-16T00:36:43.648Z,461.7692
2023-04-16T00:37:44.694Z,462.3846
2023-04-16T00:38:45.681Z,461.0769
2023-04-16T00:39:46.787Z,460.0769
2023-04-16T00:40:47.800Z,462.3846
2023-04-16T00:41:48.805Z,463.6154
2023-04-16T00:42:49.833Z,466.0000
2023-04-16T00:43:50.886Z,463.8462
2023-04-16T00:44:51.925Z,460.7692
2023-04-16T00:45:53.072Z,463.7692
2023-04-16T00:46:54.016Z,466.2308
2023-04-16T00:47:55.142Z,466.0769
2023-04-16T00:48:56.060Z,466.9231
2023-04-16T00:49:57.125Z,468.7692
2023-04-16T00:50:58.183Z,468.6154
2023-04-16T00:51:59.224Z,467.6154
2023-04-16T00:53:00.235Z,469.3077
2023-04-16T00:54:01.266Z,468.1538
2023-04-16T00:55:02.306Z,468.0000
2023-04-16T00:56:03.380Z,467.7692
2023-04-16T00:57:04.384Z,466.3846
2023-04-16T00:58:05.390Z,466.5385
2023-04-16T00:59:06.426Z,466.1538
2023-04-16T01:00:07.462Z,465.8462
2023-04-16T01:01:08.709Z,463.1538
2023-04-16T01:02:09.646Z,460.0000
2023-04-16T01:03:10.756Z,457.4615
2023-04-16T01:04:11.846Z,460.6923
2023-04-16T01:05:12.728Z,463.6923
2023-04-16T01:06:13.762Z,465.3077
2023-04-16T01:07:14.764Z,464.3077
2023-04-16T01:08:15.825Z,463.9231
2023-04-16T01:09:16.861Z,465.5385
2023-04-16T01:10:17.934Z,465.3846
2023-04-16T01:11:18.999Z,465.0000
2023-04-16T01:12:19.985Z,463.7692
2023-04-16T01:13:21.009Z,463.7692
2023-04-16T01:14:22.047Z,464.3846
2023-04-16T01:15:23.104Z,465.3077
2023-04-16T01:16:24.288Z,467.6154
2023-04-16T01:17:25.174Z,468.6923
2023-04-16T01:18:26.264Z,466.6154
2023-04-16T01:19:27.265Z,467.4615
2023-04-16T01:20:28.287Z,467.0000
2023-04-16T01:21:29.328Z,467.0000
2023-04-16T01:22:30.351Z,466.7692
2023-04-16T01:23:31.385Z,465.3077
2023-04-16T01:24:32.975Z,466.4615
2023-04-16T01:25:33.386Z,465.8462
2023-04-16T01:26:34.405Z,464.5385
2023-04-16T01:27:35.437Z,462.5385
2023-04-16T01:28:36.489Z,462.0769
2023-04-16T01:29:37.508Z,461.0769
2023-04-16T01:30:38.529Z,463.3077
2023-04-16T01:31:39.656Z,463.6923
2023-04-16T01:32:40.630Z,463.6923
2023-04-16T01:33:41.633Z,464.6154
2023-04-16T01:34:42.688Z,463.8462
2023-04-16T01:35:43.725Z,462.6923
2023-04-16T01:36:44.793Z,462.3846
2023-04-16T01:37:45.809Z,463.3846
2023-04-16T01:38:46.846Z,467.0769
2023-04-16T01:39:47.876Z,462.6923
2023-04-16T01:40:48.920Z,461.8462
2023-04-16T01:41:49.967Z,462.3077
2023-04-16T01:42:50.980Z,461.3077
2023-04-16T01:43:51.987Z,459.5385
2023-04-16T01:44:53.008Z,460.5385
2023-04-16T01:45:54.060Z,460.5385
2023-04-16T01:46:55.153Z,460.4615
2023-04-16T01:47:56.149Z,458.6923
2023-04-16T01:48:57.181Z,458.7692
2023-04-16T01:49:58.276Z,459.9231
2023-04-16T01:50:59.234Z,459.6154
2023-04-16T01:52:00.298Z,460.0769
2023-04-16T01:53:01.328Z,460.2308
2023-04-16T01:54:02.347Z,460.5385
2023-04-16T01:55:03.383Z,461.7692
2023-04-16T01:56:04.425Z,462.3077
2023-04-16T01:57:05.520Z,461.3077
2023-04-16T01:58:06.605Z,461.9231
2023-04-16T01:59:08.044Z,461.4615
2023-04-16T02:00:08.641Z,462.3077
2023-04-16T02:01:09.750Z,465.1538
2023-04-16T02:02:10.758Z,464.0000
2023-04-16T02:03:11.935Z,464.2308
2023-04-16T02:04:12.822Z,463.8462
2023-04-16T02:05:13.811Z,464.0769
2023-04-16T02:06:14.851Z,463.6154
2023-04-16T02:07:15.896Z,463.0000
2023-04-16T02:08:17.063Z,464.1538
2023-04-16T02:09:17.958Z,465.8462
2023-04-16T02:10:19.005Z,464.9231
2023-04-16T02:11:20.024Z,462.6923
2023-04-16T02:12:21.006Z,461.8462
2023-04-16T02:13:22.040Z,461.3846
2023-04-16T02:14:23.052Z,463.4615
2023-04-16T02:15:24.075Z,463.2308
2023-04-16T02:16:25.153Z,461.6923
2023-04-16T02:17:26.172Z,462.5385
2023-04-16T02:18:27.206Z,468.1538
2023-04-16T02:19:28.202Z,468.6923
2023-04-16T02:20:29.263Z,466.9231
2023-04-16T02:21:30.281Z,467.2308
2023-04-16T02:22:31.323Z,467.0769
2023-04-16T02:23:32.384Z,465.6923
2023-04-16T02:24:33.379Z,463.0000
2023-04-16T02:25:34.423Z,464.0769
2023-04-16T02:26:35.441Z,465.7692
2023-04-16T02:27:36.484Z,466.7692
2023-04-16T02:28:37.561Z,465.6923
2023-04-16T02:29:38.528Z,464.9231
2023-04-16T02:30:39.609Z,461.3077
2023-04-16T02:31:40.680Z,461.2308
2023-04-16T02:32:41.713Z,461.5385
2023-04-16T02:33:42.719Z,460.9231
2023-04-16T02:34:43.739Z,462.2308
2023-04-16T02:35:44.782Z,464.4615
2023-04-16T02:36:45.785Z,466.3077
2023-04-16T02:37:46.855Z,464.4615
2023-04-16T02:38:47.928Z,465.7692
2023-04-16T02:39:48.923Z,467.0769
2023-04-16T02:40:49.947Z,465.6923
2023-04-16T02:41:51.008Z,465.2308
2023-04-16T02:42:52.029Z,465.0000
2023-04-16T02:43:53.101Z,467.2308
2023-04-16T02:44:54.100Z,469.3077
2023-04-16T02:45:55.236Z,468.7692
2023-04-16T02:46:56.302Z,467.2308
2023-04-16T02:47:57.397Z,467.3077
2023-04-16T02:48:58.367Z,468.7692
2023-04-16T02:49:59.350Z,469.6154
2023-04-16T02:51:00.394Z,467.5385
2023-04-16T02:52:01.449Z,468.7692
2023-04-16T02:53:02.464Z,469.3077
2023-04-16T02:54:03.574Z,470.0000
2023-04-16T02:55:04.623Z,469.0769
2023-04-16T02:56:05.593Z,468.2308
2023-04-16T02:57:06.646Z,470.2308
2023-04-16T02:58:07.657Z,468.6154
2023-04-16T02:59:08.937Z,467.3846
2023-04-16T03:00:09.769Z,467.4615
2023-04-16T03:01:10.850Z,466.9231
2023-04-16T03:02:11.885Z,467.1538
2023-04-16T03:03:12.945Z,469.0000
2023-04-16T03:04:13.945Z,468.6154
2023-04-16T03:05:14.933Z,467.6923
2023-04-16T03:06:16.031Z,464.4615
2023-04-16T03:07:17.069Z,466.0000
2023-04-16T03:08:18.051Z,466.5385
2023-04-16T03:09:19.091Z,465.6923
2023-04-16T03:10:20.134Z,466.0769
2023-04-16T03:11:21.191Z,467.7692
2023-04-16T03:12:22.174Z,467.6154
2023-04-16T03:13:23.234Z,468.6923
2023-04-16T03:14:24.311Z,467.6923
2023-04-16T03:15:25.323Z,467.8462
2023-04-16T03:16:26.353Z,466.0769
2023-04-16T03:17:27.429Z,464.4615
2023-04-16T03:18:28.396Z,466.2308
2023-04-16T03:19:29.475Z,466.6923
2023-04-16T03:20:30.492Z,467.4615
2023-04-16T03:21:31.552Z,467.5385
2023-04-16T03:22:32.582Z,469.8462
2023-04-16T03:23:33.625Z,468.1538
2023-04-16T03:24:34.689Z,468.7692
2023-04-16T03:25:35.730Z,470.8462
2023-04-16T03:26:36.722Z,471.0769
2023-04-16T03:27:37.774Z,470.3077
2023-04-16T03:28:38.818Z,470.3846
2023-04-16T03:29:39.883Z,470.9231
2023-04-16T03:30:40.902Z,468.8462
2023-04-16T03:31:41.989Z,469.3846
2023-04-16T03:32:43.063Z,471.4615
2023-04-16T03:33:43.998Z,475.3846
2023-04-16T03:34:45.089Z,468.5385
2023-04-16T03:35:46.125Z,468.5385
2023-04-16T03:36:47.298Z,465.8462
2023-04-16T03:37:48.156Z,465.9231
2023-04-16T03:38:49.206Z,467.6154
2023-04-16T03:39:50.310Z,468.0000
2023-04-16T03:40:51.304Z,469.3846
2023-04-16T03:41:52.382Z,468.6154
2023-04-16T03:42:53.436Z,468.0769
2023-04-16T03:43:54.623Z,469.4615
2023-04-16T03:44:55.502Z,469.1538
2023-04-16T03:45:56.577Z,468.7692
2023-04-16T03:46:57.659Z,468.7692
2023-04-16T03:47:58.656Z,468.4615
2023-04-16T03:48:59.694Z,466.3077
2023-04-16T03:50:00.732Z,466.0769
2023-04-16T03:51:01.812Z,465.8462
2023-04-16T03:52:02.852Z,464.4615
2023-04-16T03:53:03.831Z,469.4615
2023-04-16T03:54:04.883Z,469.1538
2023-04-16T03:55:05.831Z,466.1538
2023-04-16T03:56:06.900Z,466.3077
2023-04-16T03:57:07.895Z,466.3846
2023-04-16T03:58:08.952Z,464.0000
2023-04-16T03:59:10.139Z,463.0769
2023-04-16T04:00:11.038Z,462.2308
2023-04-16T04:01:12.082Z,466.2308
2023-04-16T04:02:13.263Z,467.7692
2023-04-16T04:03:14.310Z,467.0000
2023-04-16T04:04:15.234Z,465.3846
2023-04-16T04:05:16.217Z,462.8462
2023-04-16T04:06:17.294Z,463.3077
2023-04-16T04:07:18.311Z,464.3077
2023-04-16T04:08:19.313Z,467.3077
2023-04-16T04:09:20.396Z,468.2308
2023-04-16T04:10:21.410Z,468.4615
2023-04-16T04:11:22.478Z,469.0769
2023-04-16T04:12:23.481Z,466.5385
2023-04-16T04:13:24.526Z,467.0769
2023-04-16T04:14:25.556Z,466.8462
2023-04-16T04:15:26.616Z,468.5385
2023-04-16T04:16:27.699Z,469.4615
2023-04-16T04:17:28.667Z,467.3846
2023-04-16T04:18:29.713Z,468.5385
2023-04-16T04:19:30.777Z,469.6923
2023-04-16T04:20:31.807Z,470.3846
2023-04-16T04:21:32.896Z,469.2308
2023-04-16T04:22:33.877Z,467.4615
2023-04-16T04:23:34.924Z,467.8462
2023-04-16T04:24:35.971Z,466.4615
2023-04-16T04:25:37.002Z,467.3846
2023-04-16T04:26:38.183Z,467.9231
2023-04-16T04:27:39.060Z,469.8462
2023-04-16T04:28:40.175Z,471.0000
2023-04-16T04:29:41.204Z,470.9231
2023-04-16T04:30:42.382Z,471.6923
2023-04-16T04:31:43.515Z,472.6923
2023-04-16T04:32:44.371Z,473.1538
2023-04-16T04:33:45.365Z,471.5385
2023-04-16T04:34:46.415Z,469.7692
2023-04-16T04:35:47.544Z,469.0769
2023-04-16T04:36:48.522Z,468.2308
2023-04-16T04:37:49.557Z,469.5385
2023-04-16T04:38:50.566Z,471.9231
2023-04-16T04:39:51.609Z,472.1538
2023-04-16T04:40:52.690Z,468.1538
2023-04-16T04:41:53.703Z,470.1538
2023-04-16T04:42:54.733Z,470.0769
2023-04-16T04:43:55.791Z,471.3846
2023-04-16T04:44:56.822Z,471.9231
2023-04-16T04:45:57.881Z,471.4615
2023-04-16T04:46:58.923Z,469.4615
2023-04-16T04:47:59.951Z,469.3846
2023-04-16T04:49:00.966Z,468.7692
2023-04-16T04:50:01.988Z,467.7692
2023-04-16T04:51:05.032Z,467.8462
2023-04-16T04:52:04.063Z,466.2308
2023-04-16T04:53:05.042Z,463.2308
2023-04-16T04:54:06.105Z,462.6154
2023-04-16T04:55:07.162Z,466.9231
2023-04-16T04:56:12.796Z,469.3077
2023-04-16T04:57:09.286Z,471.0769
2023-04-16T04:58:10.269Z,470.3846
2023-04-16T04:59:11.450Z,469.3077
2023-04-16T05:00:12.326Z,469.7692
2023-04-16T05:01:13.367Z,469.3846
2023-04-16T05:02:14.532Z,468.9231
2023-04-16T05:03:15.489Z,468.1538
2023-04-16T05:04:16.598Z,467.6154
2023-04-16T05:05:17.586Z,466.5385
2023-04-16T05:06:18.567Z,467.2308
2023-04-16T05:07:19.589Z,467.1538
2023-04-16T05:08:20.639Z,467.0000
2023-04-16T05:09:21.663Z,468.5385
2023-04-16T05:10:22.693Z,467.3846
2023-04-16T05:11:23.716Z,466.8462
2023-04-16T05:12:24.775Z,469.6154
2023-04-16T05:13:25.811Z,470.8462
2023-04-16T05:14:26.852Z,472.0769
2023-04-16T05:15:27.896Z,470.6923
2023-04-16T05:16:28.978Z,467.5385
2023-04-16T05:17:30.038Z,464.7692
2023-04-16T05:18:30.972Z,464.1538
2023-04-16T05:19:32.070Z,464.8462
2023-04-16T05:20:33.068Z,466.1538
2023-04-16T05:21:34.106Z,467.8462
2023-04-16T05:22:35.178Z,469.2308
2023-04-16T05:23:36.221Z,469.0769
2023-04-16T05:24:37.277Z,468.3846
2023-04-16T05:25:38.333Z,469.5385
2023-04-16T05:26:39.369Z,468.0000
2023-04-16T05:27:40.478Z,466.3846
2023-04-16T05:28:41.459Z,466.3077
2023-04-16T05:29:42.492Z,469.0000
2023-04-16T05:30:43.588Z,468.9231
2023-04-16T05:31:44.574Z,468.0000
2023-04-16T05:32:45.683Z,467.6154
2023-04-16T05:33:46.658Z,468.0000
2023-04-16T05:34:47.719Z,467.9231
2023-04-16T05:35:48.675Z,470.6154
2023-04-16T05:36:49.690Z,468.7692
2023-04-16T05:37:50.793Z,469.2308
2023-04-16T05:38:51.828Z,470.6154
2023-04-16T05:39:52.932Z,470.6923
2023-04-16T05:40:53.855Z,470.3846
2023-04-16T05:41:54.902Z,467.8462
2023-04-16T05:42:56.013Z,468.2308
2023-04-16T05:43:56.984Z,466.6923
2023-04-16T05:44:58.027Z,468.0000
2023-04-16T05:45:59.108Z,468.6154
2023-04-16T05:47:00.094Z,467.8462
2023-04-16T05:48:01.196Z,467.5385
2023-04-16T05:49:02.189Z,467.2308
2023-04-16T05:50:03.190Z,463.2308
2023-04-16T05:51:04.306Z,466.0000
2023-04-16T05:52:05.275Z,465.4615
2023-04-16T05:53:06.292Z,466.4615
2023-04-16T05:54:07.365Z,465.1538
2023-04-16T05:55:08.349Z,464.8462
2023-04-16T05:56:09.390Z,469.0000
2023-04-16T05:57:10.433Z,465.0000
2023-04-16T05:58:11.470Z,464.6154
2023-04-16T05:59:12.555Z,467.5385
2023-04-16T06:00:13.526Z,466.9231
2023-04-16T06:01:14.600Z,468.8462
2023-04-16T06:02:15.710Z,465.8462
2023-04-16T06:03:16.828Z,460.0000
2023-04-16T06:04:17.875Z,460.9231
2023-04-16T06:05:18.738Z,461.3846
2023-04-16T06:06:19.783Z,464.0769
2023-04-16T06:07:20.836Z,466.1538
2023-04-16T06:08:21.849Z,469.4615
2023-04-16T06:09:23.024Z,468.4615
2023-04-16T06:10:23.939Z,468.1538
2023-04-16T06:11:24.993Z,468.6154
2023-04-16T06:12:26.025Z,468.5385
2023-04-16T06:13:27.080Z,468.4615
2023-04-16T06:14:28.168Z,468.6923
2023-04-16T06:15:29.132Z,470.1538
2023-04-16T06:16:30.259Z,470.9231
2023-04-16T06:17:31.265Z,466.4615
2023-04-16T06:18:32.294Z,465.0000
2023-04-16T06:19:33.344Z,467.0769
2023-04-16T06:20:34.351Z,466.5385
2023-04-16T06:21:35.380Z,464.4615
2023-04-16T06:22:36.417Z,464.9231
2023-04-16T06:23:37.486Z,465.5385
2023-04-16T06:24:38.558Z,465.3077
2023-04-16T06:25:39.554Z,464.9231
2023-04-16T06:26:40.576Z,464.7692
2023-04-16T06:27:41.615Z,461.6923
2023-04-16T06:28:42.648Z,463.4615
2023-04-16T06:29:43.750Z,465.5385
2023-04-16T06:30:44.861Z,464.8462
2023-04-16T06:31:45.813Z,466.4615
2023-04-16T06:32:46.862Z,466.6154
2023-04-16T06:33:47.856Z,465.0000
2023-04-16T06:34:49.161Z,463.8462
2023-04-16T06:35:49.928Z,465.3846
2023-04-16T06:36:50.968Z,465.9231
2023-04-16T06:37:52.004Z,465.3077
2023-04-16T06:38:53.050Z,465.4615
2023-04-16T06:39:54.131Z,466.6923
2023-04-16T06:40:55.116Z,466.1538
2023-04-16T06:41:56.185Z,466.9231
2023-04-16T06:42:57.216Z,465.4615
2023-04-16T06:43:58.231Z,465.2308
2023-04-16T06:44:59.292Z,466.1538
2023-04-16T06:46:00.303Z,467.3846
2023-04-16T06:47:01.407Z,468.8462
2023-04-16T06:48:02.433Z,468.8462
2023-04-16T06:49:03.435Z,469.3846
2023-04-16T06:50:04.564Z,468.1538
2023-04-16T06:51:05.509Z,466.5385
2023-04-16T06:52:06.546Z,465.3846
2023-04-16T06:53:07.559Z,464.7692
2023-04-16T06:54:08.619Z,466.6154
2023-04-16T06:55:09.704Z,466.8462
2023-04-16T06:56:10.709Z,466.3077
2023-04-16T06:57:11.714Z,467.7692
2023-04-16T06:58:12.780Z,467.8462
2023-04-16T06:59:13.755Z,467.6923
2023-04-16T07:00:14.855Z,467.6154
2023-04-16T07:01:15.905Z,467.9231
2023-04-16T07:02:17.022Z,468.6154
2023-04-16T07:03:18.017Z,470.3077
2023-04-16T07:04:19.013Z,471.5385
2023-04-16T07:05:20.184Z,472.5385
2023-04-16T07:06:21.160Z,472.0769
2023-04-16T07:07:22.322Z,472.4615
2023-04-16T07:08:23.193Z,472.6923
2023-04-16T07:09:24.259Z,470.8462
2023-04-16T07:10:25.582Z,470.0769
2023-04-16T07:11:26.306Z,470.9231
2023-04-16T07:12:27.366Z,471.2308
2023-04-16T07:13:28.590Z,470.5385
2023-04-16T07:14:29.440Z,472.0769
2023-04-16T07:15:30.526Z,471.2308
2023-04-16T07:16:31.596Z,471.6923
2023-04-16T07:17:32.594Z,469.3077
2023-04-16T07:18:33.586Z,469.6923
2023-04-16T07:19:34.603Z,470.4615
2023-04-16T07:20:35.671Z,470.8462
2023-04-16T07:21:36.745Z,468.8462
2023-04-16T07:22:37.729Z,467.5385
2023-04-16T07:23:38.745Z,467.3077
2023-04-16T07:24:39.788Z,469.6154
2023-04-16T07:25:41.160Z,470.0769
2023-04-16T07:26:41.876Z,469.1538
2023-04-16T07:27:42.923Z,468.0000
2023-04-16T07:28:43.955Z,468.2308
2023-04-16T07:29:44.984Z,470.4615
2023-04-16T07:30:46.048Z,471.7692
2023-04-16T07:31:47.151Z,471.6923
2023-04-16T07:32:48.162Z,471.6923
2023-04-16T07:33:49.148Z,471.6154
2023-04-16T07:34:50.235Z,469.1538
2023-04-16T07:35:51.240Z,469.5385
2023-04-16T07:36:52.309Z,470.6154
2023-04-16T07:37:53.310Z,470.7692
2023-04-16T07:38:54.386Z,469.0769
2023-04-16T07:39:57.375Z,468.6154
2023-04-16T07:40:56.411Z,467.0000
2023-04-16T07:41:57.524Z,466.7692
2023-04-16T07:42:58.494Z,466.7692
2023-04-16T07:43:59.558Z,465.7692
2023-04-16T07:45:00.585Z,464.3077
2023-04-16T07:46:01.655Z,463.3077
2023-04-16T07:47:05.246Z,464.6154
2023-04-16T07:48:03.718Z,464.2308
2023-04-16T07:49:04.751Z,464.7692
2023-04-16T07:50:05.767Z,465.8462
2023-04-16T07:51:06.812Z,468.0000
2023-04-16T07:52:07.866Z,467.1538
2023-04-16T07:53:08.869Z,467.1538
2023-04-16T07:54:09.882Z,464.9231
2023-04-16T07:55:10.909Z,466.1538
2023-04-16T07:56:11.940Z,465.7692
2023-04-16T07:57:13.053Z,464.2308
2023-04-16T07:58:14.027Z,465.3846
2023-04-16T07:59:22.728Z,465.3077
2023-04-16T08:00:16.122Z,467.7692
2023-04-16T08:01:17.145Z,469.0000
2023-04-16T08:02:18.284Z,469.9231
2023-04-16T08:03:19.428Z,468.6923
2023-04-16T08:04:20.434Z,469.7692
2023-04-16T08:05:21.372Z,467.7692
2023-04-16T08:06:22.316Z,467.4615
2023-04-16T08:07:23.419Z,469.3077
2023-04-16T08:08:24.398Z,467.9231
2023-04-16T08:09:25.449Z,469.1538
2023-04-16T08:10:26.480Z,468.5385
2023-04-16T08:11:27.544Z,470.2308
2023-04-16T08:12:28.650Z,469.5385
2023-04-16T08:13:30.851Z,470.4615
2023-04-16T08:14:30.678Z,469.0000
2023-04-16T08:15:31.736Z,467.3846
2023-04-16T08:16:32.719Z,467.6923
2023-04-16T08:17:33.825Z,468.0769
2023-04-16T08:18:34.847Z,468.0769
2023-04-16T08:19:35.856Z,468.2308
2023-04-16T08:20:36.903Z,469.0000
2023-04-16T08:21:37.900Z,469.6154
2023-04-16T08:22:38.948Z,469.1538
2023-04-16T08:23:40.026Z,467.5385
2023-04-16T08:24:41.036Z,466.3077
2023-04-16T08:25:42.100Z,466.6923
2023-04-16T08:26:43.096Z,465.8462
2023-04-16T08:27:44.149Z,465.9231
2023-04-16T08:28:45.211Z,465.7692
2023-04-16T08:29:46.199Z,465.1538
2023-04-16T08:30:47.236Z,466.8462
2023-04-16T08:31:48.328Z,467.6154
2023-04-16T08:32:50.233Z,466.7692
2023-04-16T08:33:50.409Z,464.6923
2023-04-16T08:34:51.442Z,465.0000
2023-04-16T08:35:52.471Z,465.6923
2023-04-16T08:36:53.503Z,466.2308
2023-04-16T08:37:54.562Z,467.6923
2023-04-16T08:38:55.603Z,468.1538
2023-04-16T08:39:56.583Z,465.6923
2023-04-16T08:40:57.620Z,466.7692
2023-04-16T08:41:58.701Z,466.3077
2023-04-16T08:42:59.694Z,466.3077
2023-04-16T08:44:00.970Z,466.0000
2023-04-16T08:45:01.806Z,469.3077
2023-04-16T08:46:02.830Z,467.7692
2023-04-16T08:47:03.973Z,466.9231
2023-04-16T08:48:05.006Z,466.7692
2023-04-16T08:49:06.000Z,466.6154
2023-04-16T08:50:07.005Z,468.0000
2023-04-16T08:51:08.058Z,468.0769
2023-04-16T08:52:09.095Z,465.6154
2023-04-16T08:53:10.108Z,464.6154
2023-04-16T08:54:11.193Z,464.1538
2023-04-16T08:55:12.192Z,464.6923
2023-04-16T08:56:13.255Z,466.1538
2023-04-16T08:57:14.248Z,466.1538
2023-04-16T08:58:15.400Z,465.4615
2023-04-16T08:59:16.383Z,466.1538
2023-04-16T09:00:17.381Z,464.3846
2023-04-16T09:01:18.539Z,465.3846
2023-04-16T09:02:19.521Z,467.5385
2023-04-16T09:03:20.687Z,468.9231
2023-04-16T09:04:21.672Z,467.8462
2023-04-16T09:05:22.622Z,464.4615
2023-04-16T09:06:23.638Z,465.6154
2023-04-16T09:07:24.696Z,469.3077
2023-04-16T09:08:25.907Z,471.8462
2023-04-16T09:09:27.197Z,472.2308
2023-04-16T09:10:27.796Z,471.5385
2023-04-16T09:11:28.810Z,471.4615
2023-04-16T09:12:29.853Z,470.8462
2023-04-16T09:13:30.895Z,471.0769
2023-04-16T09:14:31.955Z,469.8462
2023-04-16T09:15:35.038Z,469.6154
2023-04-16T09:16:34.028Z,470.0769
2023-04-16T09:17:35.097Z,468.8462
2023-04-16T09:18:36.056Z,468.7692
2023-04-16T09:19:37.233Z,468.0769
2023-04-16T09:20:38.113Z,465.4615
2023-04-16T09:21:39.182Z,464.9231
2023-04-16T09:22:40.224Z,464.9231
2023-04-16T09:23:41.235Z,463.1538
2023-04-16T09:24:42.314Z,463.3846
2023-04-16T09:25:43.301Z,462.6923
2023-04-16T09:26:44.504Z,462.5385
2023-04-16T09:27:45.407Z,463.0769
2023-04-16T09:28:46.436Z,463.4615
2023-04-16T09:29:47.500Z,464.8462
2023-04-16T09:30:48.497Z,464.7692
2023-04-16T09:31:49.613Z,465.4615
2023-04-16T09:32:50.645Z,464.6923
2023-04-16T09:33:51.616Z,464.0769
2023-04-16T09:34:52.658Z,466.1538
2023-04-16T09:35:53.776Z,466.0769
2023-04-16T09:36:54.700Z,463.7692
2023-04-16T09:37:55.719Z,463.3846
2023-04-16T09:38:57.786Z,468.5385
2023-04-16T09:39:57.860Z,468.2308
2023-04-16T09:40:58.901Z,466.3077
2023-04-16T09:41:59.979Z,465.0000
2023-04-16T09:43:00.969Z,465.0769
2023-04-16T09:44:02.030Z,463.9231
2023-04-16T09:45:05.457Z,462.6923
2023-04-16T09:46:07.865Z,464.3846
2023-04-16T09:47:05.102Z,464.3077
2023-04-16T09:48:06.194Z,464.5385
2023-04-16T09:49:07.390Z,462.7692
2023-04-16T09:50:08.233Z,461.0000
2023-04-16T09:51:09.254Z,462.7692
2023-04-16T09:52:10.269Z,463.0000
2023-04-16T09:53:11.313Z,462.3077
2023-04-16T09:54:12.376Z,462.3846
2023-04-16T09:55:13.444Z,464.3846
2023-04-16T09:56:14.496Z,466.3077
2023-04-16T09:57:15.468Z,467.0769
2023-04-16T09:58:16.530Z,468.4615
2023-04-16T09:59:17.543Z,471.3077
2023-04-16T10:00:18.779Z,471.2308
2023-04-16T10:01:19.692Z,468.3077
2023-04-16T10:02:20.718Z,465.6923
2023-04-16T10:03:21.810Z,466.7692
2023-04-16T10:04:22.780Z,464.7692
2023-04-16T10:05:23.779Z,463.6154
2023-04-16T10:06:24.837Z,463.8462
2023-04-16T10:07:25.855Z,463.0769
2023-04-16T10:08:26.913Z,462.6923
2023-04-16T10:09:27.914Z,465.6923
2023-04-16T10:10:28.991Z,466.8462
2023-04-16T10:11:30.062Z,467.6154
2023-04-16T10:12:31.014Z,465.8462
2023-04-16T10:13:32.081Z,465.3846
2023-04-16T10:14:33.195Z,464.7692
2023-04-16T10:15:34.212Z,466.0769
2023-04-16T10:16:35.226Z,468.2308
2023-04-16T10:17:36.231Z,469.4615
2023-04-16T10:18:37.249Z,468.7692
2023-04-16T10:19:38.314Z,467.6154
2023-04-16T10:20:39.392Z,469.0000
2023-04-16T10:21:40.398Z,467.6154
2023-04-16T10:22:41.400Z,470.3077
2023-04-16T10:23:42.440Z,472.4615
2023-04-16T10:24:43.478Z,472.2308
2023-04-16T10:25:44.520Z,471.1538
2023-04-16T10:26:45.621Z,468.1538
2023-04-16T10:27:46.644Z,469.0769
2023-04-16T10:28:47.644Z,470.9231
2023-04-16T10:29:48.681Z,469.5385
2023-04-16T10:30:49.756Z,469.3077
2023-04-16T10:31:50.819Z,473.3846
2023-04-16T10:32:51.855Z,474.9231
2023-04-16T10:33:52.876Z,473.6923
2023-04-16T10:34:53.910Z,471.8462
2023-04-16T10:36:04.892Z,471.6154
2023-04-16T10:36:56.080Z,473.0769
2023-04-16T10:37:56.985Z,474.3077
2023-04-16T10:38:58.031Z,471.4615
2023-04-16T10:39:59.070Z,471.8462
2023-04-16T10:41:00.103Z,472.3077
2023-04-16T10:42:01.171Z,471.3077
2023-04-16T10:43:02.184Z,472.8462
2023-04-16T10:44:03.217Z,473.6923
2023-04-16T10:45:04.269Z,476.5385
2023-04-16T10:46:05.304Z,476.8462
2023-04-16T10:47:06.424Z,477.1538
2023-04-16T10:48:08.018Z,477.3077
2023-04-16T10:49:08.670Z,475.7692
2023-04-16T10:50:09.430Z,475.0769
2023-04-16T10:51:10.449Z,475.2308
2023-04-16T10:52:11.509Z,474.5385
2023-04-16T10:53:12.534Z,473.7692
2023-04-16T10:54:13.563Z,473.2308
2023-04-16T10:55:14.604Z,472.8462
2023-04-16T10:56:15.645Z,471.8462
2023-04-16T10:57:16.718Z,471.3077
2023-04-16T10:58:17.707Z,471.0769
2023-04-16T10:59:18.758Z,471.0000
2023-04-16T11:00:20.024Z,470.0769
2023-04-16T11:01:20.885Z,471.8462
2023-04-16T11:02:22.026Z,471.8462
2023-04-16T11:03:23.045Z,471.6154
2023-04-16T11:04:24.010Z,472.8462
2023-04-16T11:05:24.986Z,471.2308
2023-04-16T11:06:26.134Z,470.1538
2023-04-16T11:07:27.147Z,469.6923
2023-04-16T11:08:28.188Z,470.9231
2023-04-16T11:09:29.208Z,470.7692
2023-04-16T11:10:30.246Z,468.8462
2023-04-16T11:11:31.289Z,468.3846
2023-04-16T11:12:32.380Z,469.9231
2023-04-16T11:13:33.378Z,470.5385
2023-04-16T11:14:34.428Z,471.4615
2023-04-16T11:15:35.474Z,471.9231
2023-04-16T11:16:36.495Z,473.2308
2023-04-16T11:17:37.613Z,472.9231
2023-04-16T11:18:38.566Z,475.3846
2023-04-16T11:19:39.584Z,474.9231
2023-04-16T11:20:40.657Z,472.0000
2023-04-16T11:21:41.651Z,471.1538
2023-04-16T11:22:42.749Z,472.3077
2023-04-16T11:23:43.808Z,469.6923
2023-04-16T11:24:44.852Z,467.0000
2023-04-16T11:25:45.811Z,466.8462
2023-04-16T11:26:46.844Z,470.5385
2023-04-16T11:27:48.046Z,471.5385
2023-04-16T11:28:48.941Z,469.9231
2023-04-16T11:29:49.956Z,471.9231
2023-04-16T11:30:50.993Z,472.4615
2023-04-16T11:31:52.154Z,472.8462
2023-04-16T11:32:53.286Z,472.4615
2023-04-16T11:33:54.124Z,468.4615
2023-04-16T11:34:55.185Z,467.6923
2023-04-16T11:35:56.226Z,467.0000
2023-04-16T11:36:57.258Z,463.5385
2023-04-16T11:37:58.285Z,464.2308
2023-04-16T11:38:59.412Z,464.7692
2023-04-16T11:40:00.442Z,466.5385
2023-04-16T11:41:01.473Z,466.9231
2023-04-16T11:42:02.570Z,469.4615
2023-04-16T11:43:03.609Z,470.3846
2023-04-16T11:44:04.649Z,470.8462
2023-04-16T11:45:05.660Z,469.6154
2023-04-16T11:46:16.588Z,469.6154
2023-04-16T11:47:07.868Z,466.6154
2023-04-16T11:48:11.093Z,466.3846
2023-04-16T11:49:10.136Z,466.4615
2023-04-16T11:50:10.887Z,466.3846
2023-04-16T11:51:11.891Z,465.4615
2023-04-16T11:52:12.953Z,464.7692
2023-04-16T11:53:14.003Z,468.3077
2023-04-16T11:54:15.003Z,471.6154
2023-04-16T11:55:16.033Z,472.2308
2023-04-16T11:56:17.103Z,471.3077